createdAt,value
2022-12-31T00:00:38.473Z,11.95
2022-12-31T00:03:09.015Z,11.85
2022-12-31T00:05:38.180Z,11.91
2022-12-31T00:08:06.438Z,11.90
2022-12-31T00:10:39.850Z,11.99
2022-12-31T00:13:08.202Z,12.04
2022-12-31T00:15:36.066Z,11.93
2022-12-31T00:18:08.314Z,12.05
2022-12-31T00:20:36.036Z,11.94
2022-12-31T00:23:04.033Z,11.97
2022-12-31T00:25:31.676Z,12.01
2022-12-31T00:27:59.715Z,12.04
2022-12-31T00:30:27.450Z,12.02
2022-12-31T00:32:55.695Z,12.03
2022-12-31T00:35:24.688Z,12.07
2022-12-31T00:37:53.585Z,11.86
2022-12-31T00:40:21.495Z,11.98
2022-12-31T00:42:49.639Z,12.12
2022-12-31T00:45:17.380Z,11.90
2022-12-31T00:47:45.534Z,12.03
2022-12-31T00:50:13.195Z,12.08
2022-12-31T00:52:42.831Z,12.08
2022-12-31T00:55:10.800Z,12.18
2022-12-31T00:57:38.757Z,12.32
2022-12-31T01:00:08.900Z,12.11
2022-12-31T01:02:36.972Z,12.22
2022-12-31T01:05:05.025Z,12.22
2022-12-31T01:07:33.251Z,12.20
2022-12-31T01:10:02.286Z,12.19
2022-12-31T01:12:30.263Z,12.16
2022-12-31T01:14:57.897Z,12.19
2022-12-31T01:17:25.563Z,12.06
2022-12-31T01:19:53.205Z,11.97
2022-12-31T01:22:21.570Z,12.08
2022-12-31T01:24:49.212Z,12.16
2022-12-31T01:27:18.551Z,12.15
2022-12-31T01:29:47.378Z,12.13
2022-12-31T01:32:15.437Z,12.22
2022-12-31T01:34:43.099Z,12.26
2022-12-31T01:37:10.771Z,12.42
2022-12-31T01:39:38.417Z,12.22
2022-12-31T01:42:06.506Z,12.32
2022-12-31T01:44:51.896Z,12.27
2022-12-31T01:47:33.921Z,12.44
2022-12-31T01:50:07.841Z,12.21
2022-12-31T01:52:39.798Z,12.38
2022-12-31T01:55:15.487Z,12.55
2022-12-31T01:57:45.592Z,12.44
2022-12-31T02:00:15.564Z,12.46
2022-12-31T02:02:45.291Z,12.55
2022-12-31T02:05:19.545Z,12.57
2022-12-31T02:07:49.688Z,12.56
2022-12-31T02:10:17.604Z,12.64
2022-12-31T02:12:46.132Z,12.75
2022-12-31T02:15:16.099Z,12.90
2022-12-31T02:17:52.288Z,12.89
2022-12-31T02:20:40.990Z,12.88
2022-12-31T02:23:34.194Z,12.99
2022-12-31T02:26:49.672Z,12.98
2022-12-31T02:29:45.368Z,13.06
2022-12-31T02:32:20.603Z,12.94
2022-12-31T02:34:56.399Z,13.08
2022-12-31T02:37:26.124Z,13.09
2022-12-31T02:39:54.832Z,13.13
2022-12-31T02:42:22.507Z,13.28
2022-12-31T02:44:50.593Z,13.12
2022-12-31T02:47:35.556Z,13.17
2022-12-31T02:50:27.019Z,13.14
2022-12-31T02:53:06.156Z,13.12
2022-12-31T02:55:43.808Z,13.23
2022-12-31T02:58:20.606Z,13.05
2022-12-31T03:01:10.238Z,13.10
2022-12-31T03:03:41.234Z,13.08
2022-12-31T03:06:11.047Z,13.03
2022-12-31T03:08:57.924Z,13.07
2022-12-31T03:11:39.588Z,13.06
2022-12-31T03:14:07.454Z,13.04
2022-12-31T03:16:35.345Z,13.21
2022-12-31T03:19:22.354Z,13.13
2022-12-31T03:22:07.481Z,13.05
2022-12-31T03:24:53.322Z,13.23
2022-12-31T03:27:20.971Z,13.32
2022-12-31T03:29:49.421Z,13.21
2022-12-31T03:32:17.087Z,13.20
2022-12-31T03:34:46.696Z,13.35
2022-12-31T03:37:14.376Z,13.28
2022-12-31T03:39:42.814Z,13.33
2022-12-31T03:42:10.508Z,13.52
2022-12-31T03:44:38.276Z,13.57
2022-12-31T03:47:06.542Z,13.72
2022-12-31T03:49:34.234Z,13.86
2022-12-31T03:52:03.557Z,13.69
2022-12-31T03:54:31.919Z,13.70
2022-12-31T03:57:00.333Z,13.88
2022-12-31T03:59:28.566Z,13.98
2022-12-31T04:01:56.518Z,13.89
2022-12-31T04:04:24.727Z,13.93
2022-12-31T04:06:52.772Z,14.07
2022-12-31T04:09:22.043Z,14.07
2022-12-31T04:11:49.836Z,14.13
2022-12-31T04:14:18.529Z,13.81
2022-12-31T04:16:46.873Z,13.82
2022-12-31T04:19:14.940Z,13.79
2022-12-31T04:21:43.396Z,13.81
2022-12-31T04:24:11.465Z,13.76
2022-12-31T04:26:41.090Z,13.78
2022-12-31T04:29:08.738Z,13.84
2022-12-31T04:31:36.870Z,13.89
2022-12-31T04:34:04.611Z,13.81
2022-12-31T04:36:32.821Z,13.75
2022-12-31T04:39:00.488Z,13.86
2022-12-31T04:41:28.791Z,13.92
2022-12-31T04:43:59.442Z,13.81
2022-12-31T04:46:29.189Z,13.80
2022-12-31T04:48:57.015Z,13.80
2022-12-31T04:51:26.807Z,13.84
2022-12-31T04:53:55.795Z,13.85
2022-12-31T04:56:24.072Z,13.61
2022-12-31T04:58:51.809Z,13.85
2022-12-31T05:01:21.556Z,13.88
2022-12-31T05:03:49.850Z,13.77
2022-12-31T05:06:20.130Z,14.09
2022-12-31T05:08:48.218Z,14.12
2022-12-31T05:11:16.825Z,14.14
2022-12-31T05:13:44.869Z,14.32
2022-12-31T05:16:13.364Z,14.27
2022-12-31T05:18:42.400Z,14.31
2022-12-31T05:21:16.535Z,14.26
2022-12-31T05:23:44.218Z,14.32
2022-12-31T05:26:12.798Z,14.38
2022-12-31T05:28:40.832Z,14.43
2022-12-31T05:31:08.700Z,14.35
2022-12-31T05:33:36.351Z,14.42
2022-12-31T05:36:07.460Z,14.12
2022-12-31T05:38:35.156Z,14.07
2022-12-31T05:41:04.616Z,13.89
2022-12-31T05:43:32.834Z,13.91
2022-12-31T05:46:02.153Z,13.88
2022-12-31T05:48:30.098Z,13.84
2022-12-31T05:50:58.472Z,13.84
2022-12-31T05:53:27.472Z,13.87
2022-12-31T05:55:56.432Z,13.90
2022-12-31T05:58:24.214Z,13.88
2022-12-31T06:00:52.841Z,14.03
2022-12-31T06:03:20.620Z,13.99
2022-12-31T06:05:49.766Z,13.90
2022-12-31T06:08:17.442Z,13.95
2022-12-31T06:10:47.222Z,13.91
2022-12-31T06:13:14.965Z,14.03
2022-12-31T06:15:43.000Z,14.04
2022-12-31T06:18:10.702Z,14.05
2022-12-31T06:20:39.250Z,14.02
2022-12-31T06:23:07.533Z,13.97
2022-12-31T06:25:37.307Z,14.17
2022-12-31T06:28:07.469Z,14.21
2022-12-31T06:30:35.113Z,14.26
2022-12-31T06:33:03.111Z,14.37
2022-12-31T06:35:30.772Z,14.40
2022-12-31T06:37:59.359Z,14.43
2022-12-31T06:40:27.089Z,14.33
2022-12-31T06:42:59.851Z,14.32
2022-12-31T06:45:29.474Z,14.33
2022-12-31T06:47:57.620Z,14.31
2022-12-31T06:50:25.512Z,14.24
2022-12-31T06:52:55.100Z,14.28
2022-12-31T06:55:23.218Z,14.23
2022-12-31T06:57:52.083Z,14.23
2022-12-31T07:00:21.551Z,14.22
2022-12-31T07:03:15.041Z,14.22
2022-12-31T07:05:48.028Z,14.19
2022-12-31T07:08:33.237Z,14.07
2022-12-31T07:11:05.032Z,14.01
2022-12-31T07:13:54.483Z,13.94
2022-12-31T07:16:37.639Z,13.81
2022-12-31T07:19:17.899Z,13.90
2022-12-31T07:21:47.155Z,13.85
2022-12-31T07:24:16.266Z,13.85
2022-12-31T07:26:57.861Z,13.78
2022-12-31T07:29:38.821Z,13.84
2022-12-31T07:32:19.917Z,13.98
2022-12-31T07:34:56.878Z,13.95
2022-12-31T07:37:34.789Z,13.98
2022-12-31T07:40:09.657Z,14.07
2022-12-31T07:42:51.227Z,14.11
2022-12-31T07:45:25.355Z,14.13
2022-12-31T07:47:58.896Z,14.07
2022-12-31T07:50:32.322Z,13.97
2022-12-31T07:53:01.103Z,13.81
2022-12-31T07:55:29.335Z,13.78
2022-12-31T07:58:12.104Z,13.63
2022-12-31T08:00:40.592Z,13.66
2022-12-31T08:03:22.737Z,13.54
2022-12-31T08:06:03.673Z,13.48
2022-12-31T08:08:42.461Z,13.41
2022-12-31T08:11:17.464Z,13.59
2022-12-31T08:13:46.606Z,13.73
2022-12-31T08:16:15.201Z,13.91
2022-12-31T08:18:44.061Z,14.13
2022-12-31T08:21:29.486Z,14.18
2022-12-31T08:24:12.723Z,14.28
2022-12-31T08:26:53.341Z,14.37
2022-12-31T08:29:37.968Z,14.56
2022-12-31T08:32:14.209Z,14.58
2022-12-31T08:34:50.697Z,14.54
2022-12-31T08:37:30.333Z,14.45
2022-12-31T08:40:15.167Z,14.51
2022-12-31T08:42:53.412Z,14.48
2022-12-31T08:45:29.838Z,14.51
2022-12-31T08:48:03.941Z,14.05
2022-12-31T08:50:32.125Z,13.79
2022-12-31T08:53:02.396Z,13.67
2022-12-31T08:55:30.893Z,13.61
2022-12-31T08:58:13.343Z,13.57
2022-12-31T09:00:41.756Z,13.54
2022-12-31T09:03:24.964Z,13.38
2022-12-31T09:06:03.972Z,13.34
2022-12-31T09:08:40.640Z,13.48
2022-12-31T09:11:19.120Z,13.81
2022-12-31T09:14:07.222Z,15.73
2022-12-31T09:16:45.704Z,16.54
2022-12-31T09:19:14.129Z,16.33
2022-12-31T09:21:44.332Z,15.97
2022-12-31T09:24:15.273Z,15.56
2022-12-31T09:26:51.533Z,15.34
2022-12-31T09:29:32.626Z,15.23
2022-12-31T09:32:09.162Z,15.01
2022-12-31T09:34:43.974Z,16.30
2022-12-31T09:37:16.247Z,18.51
2022-12-31T09:39:47.557Z,20.67
2022-12-31T09:42:54.332Z,21.39
2022-12-31T09:45:39.072Z,22.09
2022-12-31T09:48:45.269Z,23.04
2022-12-31T09:51:28.824Z,23.52
2022-12-31T09:54:17.664Z,24.11
2022-12-31T09:56:57.104Z,24.62
2022-12-31T09:59:35.428Z,24.93
2022-12-31T10:02:18.009Z,24.29
2022-12-31T10:04:56.995Z,24.19
2022-12-31T10:07:52.003Z,23.89
2022-12-31T10:10:27.321Z,22.21
2022-12-31T10:13:27.350Z,20.39
2022-12-31T10:16:07.028Z,19.44
2022-12-31T10:18:52.189Z,18.94
2022-12-31T10:21:33.502Z,17.75
2022-12-31T10:24:20.980Z,17.22
2022-12-31T10:27:14.062Z,16.95
2022-12-31T10:29:48.339Z,16.84
2022-12-31T10:32:26.305Z,16.88
2022-12-31T10:35:03.781Z,16.78
2022-12-31T10:37:44.100Z,16.69
2022-12-31T10:40:25.679Z,16.76
2022-12-31T10:43:17.553Z,16.75
2022-12-31T10:46:28.659Z,16.77
2022-12-31T10:49:36.828Z,16.85
2022-12-31T10:52:54.998Z,16.81
2022-12-31T10:55:44.085Z,16.94
2022-12-31T10:58:45.301Z,16.85
2022-12-31T11:01:20.089Z,16.99
2022-12-31T11:04:20.988Z,17.61
2022-12-31T11:07:25.756Z,18.63
2022-12-31T11:10:22.755Z,19.10
2022-12-31T11:13:14.229Z,19.43
2022-12-31T11:16:07.838Z,20.24
2022-12-31T11:18:46.987Z,20.23
2022-12-31T11:21:28.785Z,19.52
2022-12-31T11:24:05.006Z,18.92
2022-12-31T11:26:46.339Z,19.57
2022-12-31T11:29:32.154Z,20.45
2022-12-31T11:32:13.580Z,22.24
2022-12-31T11:35:02.790Z,23.13
2022-12-31T11:37:42.121Z,23.40
2022-12-31T11:40:27.715Z,23.76
2022-12-31T11:42:59.737Z,24.02
2022-12-31T11:45:50.565Z,23.88
2022-12-31T11:48:30.507Z,23.63
2022-12-31T11:51:13.968Z,23.74
2022-12-31T11:54:04.989Z,23.95
2022-12-31T11:56:36.778Z,23.91
2022-12-31T11:59:15.668Z,23.72
2022-12-31T12:01:55.120Z,23.53
2022-12-31T12:04:22.849Z,23.44
2022-12-31T12:06:51.620Z,23.08
2022-12-31T12:09:29.225Z,22.66
2022-12-31T12:12:03.269Z,22.70
2022-12-31T12:14:33.538Z,22.61
2022-12-31T12:17:05.049Z,22.47
2022-12-31T12:19:35.669Z,22.41
2022-12-31T12:22:12.115Z,22.46
2022-12-31T12:24:41.440Z,22.82
2022-12-31T12:27:21.778Z,22.47
2022-12-31T12:29:49.867Z,22.03
2022-12-31T12:32:19.997Z,21.68
2022-12-31T12:34:50.186Z,21.22
2022-12-31T12:37:32.574Z,21.37
2022-12-31T12:40:05.009Z,21.12
2022-12-31T12:42:33.106Z,20.94
2022-12-31T12:45:03.241Z,20.89
2022-12-31T12:47:32.292Z,20.57
2022-12-31T12:50:00.451Z,20.44
2022-12-31T12:52:46.771Z,19.98
2022-12-31T12:55:22.130Z,19.72
2022-12-31T12:58:00.250Z,19.44
2022-12-31T13:00:35.764Z,19.29
2022-12-31T13:03:29.476Z,19.11
2022-12-31T13:06:11.947Z,18.99
2022-12-31T13:09:05.136Z,18.86
2022-12-31T13:11:44.039Z,18.69
2022-12-31T13:14:23.831Z,18.58
2022-12-31T13:16:58.777Z,18.54
2022-12-31T13:19:35.607Z,18.51
2022-12-31T13:22:09.912Z,18.59
2022-12-31T13:24:50.824Z,18.66
2022-12-31T13:27:27.846Z,18.59
2022-12-31T13:29:57.700Z,18.56
2022-12-31T13:32:35.181Z,18.52
2022-12-31T13:35:17.768Z,18.43
2022-12-31T13:37:49.310Z,18.31
2022-12-31T13:40:22.383Z,18.21
2022-12-31T13:42:56.546Z,18.15
2022-12-31T13:45:29.841Z,17.98
2022-12-31T13:48:02.860Z,17.91
2022-12-31T13:50:35.431Z,17.86
2022-12-31T13:53:10.523Z,17.76
2022-12-31T13:55:42.545Z,17.53
2022-12-31T13:58:24.132Z,18.01
2022-12-31T14:00:58.888Z,17.99
2022-12-31T14:03:38.757Z,17.84
2022-12-31T14:06:17.601Z,17.76
2022-12-31T14:08:46.544Z,17.70
2022-12-31T14:11:26.568Z,17.61
2022-12-31T14:14:08.490Z,17.66
2022-12-31T14:16:43.531Z,17.68
2022-12-31T14:19:25.973Z,17.64
2022-12-31T14:22:03.959Z,17.62
2022-12-31T14:24:43.819Z,17.62
2022-12-31T14:27:17.717Z,17.58
2022-12-31T14:29:51.532Z,17.53
2022-12-31T14:32:43.231Z,17.43
2022-12-31T14:35:29.760Z,17.39
2022-12-31T14:38:05.600Z,17.29
2022-12-31T14:40:46.593Z,17.15
2022-12-31T14:43:23.684Z,17.06
2022-12-31T14:46:04.872Z,17.04
2022-12-31T14:48:42.306Z,16.98
2022-12-31T14:51:10.335Z,16.82
2022-12-31T14:53:38.353Z,16.74
2022-12-31T14:56:27.096Z,16.59
2022-12-31T14:58:57.038Z,16.35
2022-12-31T15:01:26.940Z,16.17
2022-12-31T15:03:58.122Z,16.00
2022-12-31T15:06:41.261Z,15.79
2022-12-31T15:09:19.986Z,15.60
2022-12-31T15:12:31.664Z,15.41
2022-12-31T15:15:29.251Z,15.42
2022-12-31T15:18:17.225Z,15.48
2022-12-31T15:21:26.745Z,15.44
2022-12-31T15:23:55.603Z,15.42
2022-12-31T15:26:26.104Z,15.44
2022-12-31T15:29:00.746Z,15.42
2022-12-31T15:31:29.481Z,15.43
2022-12-31T15:34:01.326Z,15.41
2022-12-31T15:36:31.337Z,15.30
2022-12-31T15:39:25.533Z,15.23
2022-12-31T15:44:50.244Z,14.82
2022-12-31T15:47:24.522Z,14.75
2022-12-31T15:49:55.955Z,14.49
2022-12-31T15:52:28.456Z,14.11
2022-12-31T15:54:58.540Z,13.74
2022-12-31T15:57:31.753Z,13.51
2022-12-31T16:00:03.257Z,13.26
2022-12-31T16:02:32.783Z,13.02
2022-12-31T16:05:02.454Z,12.92
2022-12-31T16:07:30.381Z,12.93
2022-12-31T16:10:01.035Z,12.97
2022-12-31T16:12:34.266Z,13.07
2022-12-31T16:15:03.858Z,13.19
2022-12-31T16:17:32.958Z,13.34
2022-12-31T16:20:03.737Z,13.45
2022-12-31T16:22:38.144Z,13.63
2022-12-31T16:25:30.208Z,13.71
2022-12-31T16:27:56.849Z,13.84
2022-12-31T16:30:28.811Z,13.84
2022-12-31T16:32:59.904Z,13.70
2022-12-31T16:35:31.593Z,13.50
2022-12-31T16:38:05.215Z,13.31
2022-12-31T16:40:32.880Z,13.17
2022-12-31T16:43:01.948Z,12.98
2022-12-31T16:45:35.609Z,12.88
2022-12-31T16:48:16.311Z,12.83
2022-12-31T16:50:47.787Z,12.70
2022-12-31T16:53:19.196Z,12.56
2022-12-31T16:55:55.360Z,12.48
2022-12-31T16:58:28.238Z,12.45
2022-12-31T17:01:01.113Z,12.35
2022-12-31T17:03:29.653Z,12.21
2022-12-31T17:06:04.075Z,12.08
2022-12-31T17:08:42.947Z,11.96
2022-12-31T17:11:24.033Z,11.89
2022-12-31T17:13:58.045Z,11.64
2022-12-31T17:16:26.719Z,11.47
2022-12-31T17:18:54.864Z,11.36
2022-12-31T17:21:27.429Z,11.08
2022-12-31T17:23:58.085Z,11.09
2022-12-31T17:26:27.798Z,10.77
2022-12-31T17:28:58.587Z,10.93
2022-12-31T17:31:30.414Z,11.00
2022-12-31T17:34:21.276Z,10.96
2022-12-31T17:37:02.624Z,11.00
2022-12-31T17:39:45.395Z,11.09
2022-12-31T17:42:14.698Z,11.11
2022-12-31T17:44:44.986Z,10.95
2022-12-31T17:47:14.673Z,10.90
2022-12-31T17:49:46.860Z,10.61
2022-12-31T17:52:17.286Z,10.52
2022-12-31T17:54:45.365Z,10.41
2022-12-31T17:57:24.319Z,10.20
2022-12-31T17:59:53.216Z,10.13
2022-12-31T18:02:21.415Z,10.08
2022-12-31T18:04:49.690Z,10.10
2022-12-31T18:07:18.692Z,10.23
2022-12-31T18:09:46.427Z,10.70
2022-12-31T18:12:16.249Z,11.17
2022-12-31T18:14:46.912Z,11.56
2022-12-31T18:17:16.508Z,11.95
2022-12-31T18:22:33.592Z,12.64
2022-12-31T18:25:01.629Z,12.94
2022-12-31T18:27:30.582Z,13.10
2022-12-31T18:30:04.286Z,13.22
2022-12-31T18:32:34.193Z,13.23
2022-12-31T18:35:03.455Z,12.91
2022-12-31T18:37:37.711Z,12.51
2022-12-31T18:40:08.675Z,12.24
2022-12-31T18:42:36.386Z,12.19
2022-12-31T18:45:05.073Z,12.26
2022-12-31T18:47:37.505Z,12.50
2022-12-31T18:50:06.737Z,12.71
2022-12-31T18:52:34.547Z,12.75
2022-12-31T18:55:02.511Z,12.65
2022-12-31T18:57:31.529Z,12.67
2022-12-31T18:59:59.530Z,12.71
2022-12-31T19:02:27.770Z,12.76
2022-12-31T19:04:55.442Z,12.65
2022-12-31T19:07:23.292Z,12.47
2022-12-31T19:09:56.405Z,12.40
2022-12-31T19:12:24.515Z,12.34
2022-12-31T19:14:53.516Z,12.27
2022-12-31T19:17:21.794Z,12.06
2022-12-31T19:19:49.434Z,11.95
2022-12-31T19:22:17.133Z,11.90
2022-12-31T19:24:44.802Z,11.83
2022-12-31T19:27:12.654Z,11.86
2022-12-31T19:29:40.339Z,11.93
2022-12-31T19:32:09.769Z,11.90
2022-12-31T19:34:37.456Z,11.94
2022-12-31T19:37:05.135Z,12.04
2022-12-31T19:39:32.778Z,12.11
2022-12-31T19:42:00.449Z,12.21
2022-12-31T19:44:28.155Z,12.34
2022-12-31T19:46:56.017Z,12.43
2022-12-31T19:49:25.240Z,12.49
2022-12-31T19:51:53.457Z,12.64
2022-12-31T19:54:21.151Z,12.71
2022-12-31T19:56:49.525Z,12.69
2022-12-31T19:59:17.167Z,12.79
2022-12-31T20:01:44.904Z,12.88
2022-12-31T20:04:12.578Z,12.93
2022-12-31T20:06:42.003Z,12.90
2022-12-31T20:09:09.681Z,12.87
2022-12-31T20:11:37.795Z,12.78
2022-12-31T20:14:05.483Z,12.66
2022-12-31T20:16:34.076Z,12.29
2022-12-31T20:19:01.848Z,11.97
2022-12-31T20:21:30.676Z,11.71
2022-12-31T20:23:59.694Z,11.46
2022-12-31T20:26:28.288Z,11.28
2022-12-31T20:28:56.282Z,11.16
2022-12-31T20:31:26.030Z,11.02
2022-12-31T20:33:54.921Z,10.86
2022-12-31T20:36:23.441Z,10.80
2022-12-31T20:38:51.129Z,10.80
2022-12-31T20:41:23.364Z,10.82
2022-12-31T20:43:51.518Z,10.78
2022-12-31T20:46:22.462Z,10.72
2022-12-31T20:48:52.696Z,10.78
2022-12-31T20:51:21.949Z,10.92
2022-12-31T20:53:51.640Z,11.05
2022-12-31T20:56:21.453Z,11.29
2022-12-31T20:58:49.296Z,11.51
2022-12-31T21:01:18.663Z,11.65
2022-12-31T21:04:05.947Z,11.77
2022-12-31T21:06:35.223Z,11.86
2022-12-31T21:09:05.215Z,11.83
2022-12-31T21:11:51.899Z,11.89
2022-12-31T21:14:20.093Z,11.80
2022-12-31T21:16:48.856Z,11.73
2022-12-31T21:19:16.545Z,11.69
2022-12-31T21:21:44.829Z,11.57
2022-12-31T21:24:12.731Z,11.54
2022-12-31T21:26:42.145Z,11.48
2022-12-31T21:29:09.841Z,11.43
2022-12-31T21:31:38.174Z,11.51
2022-12-31T21:34:05.832Z,11.44
2022-12-31T21:36:33.879Z,11.38
2022-12-31T21:39:01.674Z,11.43
2022-12-31T21:41:47.438Z,11.42
2022-12-31T21:44:16.641Z,11.43
2022-12-31T21:47:16.001Z,11.40
2022-12-31T21:49:32.264Z,11.29
2022-12-31T21:52:18.308Z,11.11
2022-12-31T21:55:03.409Z,10.97
2022-12-31T21:57:41.530Z,10.91
2022-12-31T22:00:43.031Z,10.76
2022-12-31T22:03:25.125Z,10.68
2022-12-31T22:05:55.485Z,10.78
2022-12-31T22:08:23.742Z,10.87
2022-12-31T22:10:53.033Z,10.82
2022-12-31T22:13:21.029Z,10.90
2022-12-31T22:15:58.683Z,10.79
2022-12-31T22:18:29.941Z,10.66
2022-12-31T22:21:15.529Z,10.37
2022-12-31T22:23:46.491Z,10.12
2022-12-31T22:26:15.942Z,10.09
2022-12-31T22:28:45.168Z,10.24
2022-12-31T22:31:16.121Z,10.45
2022-12-31T22:33:45.199Z,10.67
2022-12-31T22:36:15.379Z,10.68
2022-12-31T22:38:43.151Z,10.79
2022-12-31T22:41:12.887Z,10.95
2022-12-31T22:43:42.767Z,11.09
2022-12-31T22:46:12.098Z,11.26
2022-12-31T22:48:42.640Z,11.33
2022-12-31T22:51:11.836Z,11.48
2022-12-31T22:53:41.213Z,11.55
2022-12-31T22:56:09.875Z,11.68
2022-12-31T22:58:38.398Z,11.72
2022-12-31T23:01:07.120Z,11.78
2022-12-31T23:03:36.026Z,11.76
2022-12-31T23:06:05.308Z,11.82
2022-12-31T23:08:33.668Z,11.82
2022-12-31T23:11:00.713Z,11.81
2022-12-31T23:13:50.490Z,11.78
2022-12-31T23:16:36.753Z,11.82
2022-12-31T23:19:23.088Z,11.81
2022-12-31T23:22:09.960Z,11.65
2022-12-31T23:24:38.468Z,11.61
2022-12-31T23:27:07.093Z,11.52
2022-12-31T23:29:39.074Z,11.40
2022-12-31T23:32:12.107Z,11.32
2022-12-31T23:34:40.364Z,11.33
2022-12-31T23:37:09.369Z,11.36
2022-12-31T23:39:37.445Z,11.26
2022-12-31T23:42:05.475Z,11.06
2022-12-31T23:44:33.531Z,10.90
2022-12-31T23:47:01.229Z,10.77
2022-12-31T23:49:29.113Z,10.47
2022-12-31T23:51:56.790Z,10.33
2022-12-31T23:54:26.262Z,10.19
2022-12-31T23:56:53.917Z,10.08
2022-12-31T23:59:22.861Z,10.05
